Time;durP1;ratioP1;P1;durP2;ratioP2;P2;SDS_P1;SDS_P2;PMS_P1;PMS_P2;Temp;Humidity;BMP_temperature;BMP_pressure;BME280_temperature;BME280_humidity;BME280_pressure;Samples;Min_cycle;Max_cycle;Signal;HPM_P1;HPM_P2
2023/12/01 00:02:03;;;;;;;0.40;0.40;;;;;;;9.72;53.76;100563.63;5061243;28;20109;-64
2023/12/01 00:04:28;;;;;;;0.40;0.40;;;;;;;9.93;53.72;100564.97;5068702;28;20033;-64
2023/12/01 00:06:54;;;;;;;0.35;0.35;;;;;;;9.92;53.47;100560.66;5067480;28;20043;-64
2023/12/01 00:09:19;;;;;;;0.40;0.40;;;;;;;9.64;54.35;100563.91;5069012;28;20025;-63
2023/12/01 00:11:45;;;;;;;0.40;0.40;;;;;;;9.82;53.56;100563.91;5069429;28;20016;-63
2023/12/01 00:14:10;;;;;;;0.40;0.40;;;;;;;9.65;54.28;100566.38;5068886;28;20408;-63
2023/12/01 00:16:36;;;;;;;0.40;0.40;;;;;;;9.75;53.85;100561.28;5066840;28;20075;-64
2023/12/01 00:19:01;;;;;;;0.50;0.50;;;;;;;10.11;53.05;100565.78;5069191;28;20024;-65
2023/12/01 00:21:26;;;;;;;0.30;0.30;;;;;;;10.12;53.43;100564.72;5069010;28;20035;-65
2023/12/01 00:23:52;;;;;;;0.30;0.30;;;;;;;10.15;53.57;100568.81;5069194;28;20025;-65
2023/12/01 00:26:17;;;;;;;0.40;0.40;;;;;;;9.82;53.73;100561.22;5048927;28;20032;-64
2023/12/01 00:28:42;;;;;;;0.30;0.30;;;;;;;9.56;54.75;100567.75;5047235;28;20060;-64
2023/12/01 00:31:08;;;;;;;0.50;0.50;;;;;;;9.82;54.00;100573.81;5048520;28;20119;-64
2023/12/01 00:33:33;;;;;;;0.40;0.40;;;;;;;9.33;56.00;100577.50;5048436;28;20037;-64
2023/12/01 00:36:00;;;;;;;0.60;0.60;;;;;;;9.94;54.02;100572.00;5048748;28;20030;-64
2023/12/01 00:38:25;;;;;;;0.45;0.45;;;;;;;9.98;53.31;100576.69;5050397;28;20037;-65
2023/12/01 00:40:51;;;;;;;0.38;0.38;;;;;;;10.15;53.26;100572.34;5068476;28;20064;-64
2023/12/01 00:43:16;;;;;;;0.32;0.32;;;;;;;9.74;53.60;100567.72;5069252;28;20071;-65
2023/12/01 00:45:41;;;;;;;0.52;0.52;;;;;;;9.84;53.96;100579.78;5072217;28;20081;-65
2023/12/01 00:48:07;;;;;;;0.40;0.40;;;;;;;8.23;58.92;100591.66;5071865;28;20111;-65
2023/12/01 00:50:32;;;;;;;0.40;0.40;;;;;;;9.32;55.82;100582.03;5072447;28;20111;-63
2023/12/01 00:52:57;;;;;;;0.28;0.28;;;;;;;9.57;54.76;100584.66;5072172;28;20151;-64
2023/12/01 00:55:23;;;;;;;0.35;0.35;;;;;;;9.97;53.87;100584.94;5072211;28;20040;-65
2023/12/01 00:57:53;;;;;;;0.38;0.38;;;;;;;9.91;53.33;100581.31;5071922;28;20036;-65
2023/12/01 01:00:19;;;;;;;0.50;0.50;;;;;;;9.52;54.78;100579.13;5071866;28;20037;-63
2023/12/01 01:02:44;;;;;;;0.30;0.30;;;;;;;9.84;54.56;100575.22;5072153;28;20094;-64
2023/12/01 01:05:10;;;;;;;0.40;0.40;;;;;;;10.01;53.98;100580.75;5071558;28;20124;-64
2023/12/01 01:07:35;;;;;;;0.30;0.30;;;;;;;9.92;54.42;100582.13;5071747;28;20068;-64
2023/12/01 01:10:01;;;;;;;0.40;0.40;;;;;;;10.07;53.27;100587.91;5071863;28;20040;-65
2023/12/01 01:12:26;;;;;;;0.20;0.20;;;;;;;10.10;54.03;100584.81;5072083;28;20070;-64
2023/12/01 01:14:51;;;;;;;0.30;0.30;;;;;;;10.12;53.40;100591.56;5070421;28;20032;-64
2023/12/01 01:17:16;;;;;;;0.40;0.40;;;;;;;9.83;54.67;100584.31;5071419;28;20033;-63
2023/12/01 01:19:43;;;;;;;0.38;0.38;;;;;;;10.10;53.95;100585.63;5071455;28;20298;-64
2023/12/01 01:22:08;;;;;;;0.38;0.38;;;;;;;10.07;53.45;100583.38;5071593;28;20025;-64
2023/12/01 01:24:33;;;;;;;0.38;0.38;;;;;;;9.59;54.31;100599.47;5071390;28;20610;-66
2023/12/01 01:26:59;;;;;;;0.30;0.30;;;;;;;9.61;55.11;100586.66;5071952;28;20051;-65
2023/12/01 01:29:24;;;;;;;0.40;0.40;;;;;;;9.81;55.12;100597.13;5071368;28;20106;-64
2023/12/01 01:31:50;;;;;;;0.40;0.40;;;;;;;10.04;54.43;100583.84;5071483;28;20533;-65
2023/12/01 01:34:15;;;;;;;0.40;0.40;;;;;;;10.20;53.83;100598.50;5071028;28;20123;-64
2023/12/01 01:36:44;;;;;;;0.30;0.30;;;;;;;10.18;53.99;100596.03;5058092;28;20147;-63
2023/12/01 01:39:10;;;;;;;0.40;0.40;;;;;;;9.90;53.95;100597.66;5051352;28;20037;-63
2023/12/01 01:41:35;;;;;;;0.40;0.40;;;;;;;10.05;53.59;100598.06;5051788;28;20025;-65
2023/12/01 01:44:01;;;;;;;0.47;0.47;;;;;;;10.15;53.42;100601.03;5051292;28;20043;-63
2023/12/01 01:46:26;;;;;;;0.40;0.40;;;;;;;10.23;53.46;100606.94;5058129;28;20063;-63
2023/12/01 01:48:51;;;;;;;0.40;0.40;;;;;;;9.87;54.07;100603.47;5070691;28;20037;-66
2023/12/01 01:51:17;;;;;;;0.45;0.45;;;;;;;10.08;54.14;100606.50;5070818;28;20028;-65
2023/12/01 01:53:43;;;;;;;0.52;0.52;;;;;;;10.05;54.02;100609.63;5071290;28;20031;-64
2023/12/01 01:56:12;;;;;;;0.30;0.30;;;;;;;10.28;53.54;100614.31;5071159;28;20033;-65
2023/12/01 01:58:38;;;;;;;0.32;0.32;;;;;;;9.58;55.05;100616.63;5071131;28;20134;-64
2023/12/01 02:01:07;;;;;;;0.50;0.50;;;;;;;9.85;54.86;100610.94;5070706;28;20495;-65
2023/12/01 02:03:32;;;;;;;0.40;0.40;;;;;;;10.18;54.05;100612.16;5071061;28;20028;-65
2023/12/01 02:05:58;;;;;;;0.40;0.40;;;;;;;10.06;54.13;100619.31;5071356;28;20039;-64
2023/12/01 02:08:25;;;;;;;0.40;0.40;;;;;;;9.99;54.55;100621.25;5070848;28;20325;-64
2023/12/01 02:10:55;;;;;;;0.30;0.30;;;;;;;9.80;55.63;100624.19;5070596;28;20410;-64
2023/12/01 02:13:22;;;;;;;0.50;0.50;;;;;;;10.05;53.73;100632.94;5050502;28;20071;-65
2023/12/01 02:15:48;;;;;;;0.40;0.40;;;;;;;9.56;56.01;100626.75;5050692;28;20037;-65
2023/12/01 02:18:23;;;;;;;0.30;0.30;;;;;;;10.27;54.00;100623.41;5050678;28;20040;-65
2023/12/01 02:20:50;;;;;;;0.32;0.32;;;;;;;10.31;53.46;100632.63;5050720;28;20033;-64
2023/12/01 02:23:16;;;;;;;0.30;0.30;;;;;;;10.29;53.64;100630.19;5050556;28;20049;-65
2023/12/01 02:25:41;;;;;;;0.30;0.30;;;;;;;10.17;54.00;100637.38;5065199;28;20535;-64
2023/12/01 02:28:06;;;;;;;0.40;0.40;;;;;;;10.04;54.59;100626.78;5070056;28;20131;-64
2023/12/01 02:30:32;;;;;;;0.30;0.30;;;;;;;10.43;52.70;100633.50;5070344;28;20032;-65
2023/12/01 02:32:57;;;;;;;0.30;0.30;;;;;;;10.32;52.78;100632.41;5056804;28;20044;-64
2023/12/01 02:35:29;;;;;;;0.40;0.40;;;;;;;10.20;53.07;100639.59;5049790;28;20059;-64
2023/12/01 02:37:58;;;;;;;0.40;0.40;;;;;;;10.48;53.17;100647.03;5049427;28;20053;-64
2023/12/01 02:40:24;;;;;;;0.57;0.57;;;;;;;10.40;52.86;100639.31;5050191;28;20124;-64
2023/12/01 02:42:51;;;;;;;0.60;0.60;;;;;;;10.29;53.38;100650.84;5050047;28;20037;-65
2023/12/01 02:45:17;;;;;;;0.30;0.30;;;;;;;10.00;53.38;100651.63;5048844;28;20032;-65
2023/12/01 02:47:47;;;;;;;0.35;0.35;;;;;;;9.77;55.62;100646.94;5067689;28;20099;-64
2023/12/01 02:50:18;;;;;;;0.47;0.47;;;;;;;10.08;54.07;100640.56;5069696;28;20120;-63
2023/12/01 02:52:44;;;;;;;0.30;0.30;;;;;;;10.20;53.68;100638.78;5069923;28;20491;-63
2023/12/01 02:55:10;;;;;;;0.32;0.32;;;;;;;9.99;54.08;100641.91;5069860;28;20127;-64
2023/12/01 02:57:37;;;;;;;0.40;0.40;;;;;;;10.16;53.36;100646.47;5069722;28;20048;-66
2023/12/01 03:00:06;;;;;;;0.40;0.40;;;;;;;9.92;54.02;100636.66;5069784;28;20032;-64
2023/12/01 03:02:32;;;;;;;0.47;0.47;;;;;;;9.34;55.06;100643.47;5069641;28;20021;-64
2023/12/01 03:04:58;;;;;;;0.43;0.43;;;;;;;9.92;54.47;100643.88;5069180;28;20075;-65
2023/12/01 03:07:23;;;;;;;0.40;0.40;;;;;;;9.60;54.91;100654.78;5069141;28;20524;-64
2023/12/01 03:09:48;;;;;;;0.50;0.50;;;;;;;9.81;54.57;100653.47;5069465;28;20134;-64
2023/12/01 03:12:14;;;;;;;0.40;0.40;;;;;;;10.21;53.22;100651.16;5069544;28;20072;-64
2023/12/01 03:14:39;;;;;;;0.40;0.40;;;;;;;9.44;55.33;100641.94;5070112;28;20447;-64
2023/12/01 03:17:04;;;;;;;0.43;0.43;;;;;;;9.51;55.75;100649.94;5069412;28;20067;-64
2023/12/01 03:19:30;;;;;;;0.45;0.45;;;;;;;9.90;53.77;100649.47;5069388;28;20032;-63
2023/12/01 03:21:55;;;;;;;0.50;0.50;;;;;;;9.92;53.68;100647.38;5069574;28;20468;-63
2023/12/01 03:24:20;;;;;;;0.32;0.32;;;;;;;9.49;54.66;100660.84;5069264;28;20103;-65
2023/12/01 03:26:46;;;;;;;0.30;0.30;;;;;;;9.71;54.46;100651.34;5069857;28;20050;-65
2023/12/01 03:29:11;;;;;;;0.43;0.43;;;;;;;9.89;53.79;100652.34;5069017;28;20036;-64
2023/12/01 03:31:36;;;;;;;0.40;0.40;;;;;;;9.69;53.34;100644.53;5069317;28;20116;-63
2023/12/01 03:34:05;;;;;;;0.30;0.30;;;;;;;9.41;54.23;100649.63;5069078;28;20037;-63
2023/12/01 03:36:30;;;;;;;0.45;0.45;;;;;;;9.57;53.41;100644.47;5068714;28;20049;-64
2023/12/01 03:38:56;;;;;;;0.30;0.30;;;;;;;9.25;53.89;100648.34;5069721;28;20071;-64
2023/12/01 03:41:21;;;;;;;0.40;0.40;;;;;;;9.75;53.46;100649.84;5069121;28;20090;-66
2023/12/01 03:43:46;;;;;;;0.32;0.32;;;;;;;10.04;52.18;100655.50;5069151;28;20036;-64
2023/12/01 03:46:12;;;;;;;0.30;0.30;;;;;;;9.00;54.59;100654.75;5068995;28;20509;-64
2023/12/01 03:48:37;;;;;;;0.40;0.40;;;;;;;9.41;53.60;100657.66;5069169;28;20423;-63
2023/12/01 03:51:02;;;;;;;0.40;0.40;;;;;;;9.83;52.66;100655.97;5069104;28;20083;-64
2023/12/01 03:53:31;;;;;;;0.32;0.32;;;;;;;9.72;52.25;100658.34;5069309;28;20342;-64
2023/12/01 03:55:57;;;;;;;0.40;0.40;;;;;;;9.35;52.77;100664.75;5068918;28;20036;-64
2023/12/01 03:58:24;;;;;;;0.30;0.30;;;;;;;9.44;53.14;100663.41;5069082;28;20045;-63
2023/12/01 04:00:51;;;;;;;0.30;0.30;;;;;;;9.42;52.70;100664.66;5068782;28;20044;-64
2023/12/01 04:03:17;;;;;;;0.43;0.43;;;;;;;9.53;52.01;100661.25;5068758;28;20483;-63
2023/12/01 04:05:42;;;;;;;0.30;0.30;;;;;;;9.23;52.60;100663.81;5069260;28;20020;-64
2023/12/01 04:08:08;;;;;;;0.40;0.40;;;;;;;9.46;52.65;100674.72;5068908;28;20036;-64
2023/12/01 04:10:33;;;;;;;0.40;0.40;;;;;;;9.49;51.70;100674.25;5068820;28;20178;-64
2023/12/01 04:13:07;;;;;;;0.40;0.40;;;;;;;9.44;51.36;100676.81;5068814;28;20091;-64
2023/12/01 04:15:33;;;;;;;0.40;0.40;;;;;;;9.08;52.60;100690.13;5068776;28;20068;-64
2023/12/01 04:18:06;;;;;;;0.30;0.30;;;;;;;8.95;53.70;100687.56;5069865;28;20029;-64
2023/12/01 04:20:35;;;;;;;0.32;0.32;;;;;;;9.53;51.82;100702.28;5073019;28;20075;-63
2023/12/01 04:23:09;;;;;;;0.57;0.57;;;;;;;9.35;52.45;100699.59;5072641;28;20226;-63
2023/12/01 04:25:36;;;;;;;0.52;0.52;;;;;;;9.20;51.09;100693.72;5058668;28;20131;-64
2023/12/01 04:28:01;;;;;;;0.60;0.60;;;;;;;8.99;53.01;100715.56;5052650;28;20037;-65
2023/12/01 04:30:27;;;;;;;0.50;0.50;;;;;;;8.84;52.04;100710.50;5052626;28;20041;-64
2023/12/01 04:32:54;;;;;;;0.38;0.38;;;;;;;9.03;52.71;100705.22;5052715;28;20032;-64
2023/12/01 04:35:20;;;;;;;0.30;0.30;;;;;;;8.39;54.56;100714.28;5052229;28;20045;-64
2023/12/01 04:37:46;;;;;;;0.40;0.40;;;;;;;9.19;52.30;100710.88;5052388;28;20045;-64
2023/12/01 04:40:15;;;;;;;0.32;0.32;;;;;;;8.70;54.03;100718.88;5052607;28;20040;-65
2023/12/01 04:42:45;;;;;;;0.43;0.43;;;;;;;9.08;53.35;100721.50;5052480;28;20090;-63
2023/12/01 04:45:11;;;;;;;0.38;0.38;;;;;;;9.16;52.58;100718.53;5052342;28;20496;-64
2023/12/01 04:47:40;;;;;;;0.30;0.30;;;;;;;9.14;53.00;100717.94;5069538;28;20634;-64
2023/12/01 04:50:12;;;;;;;0.50;0.50;;;;;;;8.56;53.89;100717.31;5072023;28;20036;-66
2023/12/01 04:52:49;;;;;;;0.50;0.50;;;;;;;9.03;52.74;100715.94;5072101;28;20523;-63
2023/12/01 04:55:20;;;;;;;0.40;0.40;;;;;;;8.68;53.69;100726.28;5072068;28;20037;-63
2023/12/01 04:57:47;;;;;;;0.40;0.40;;;;;;;8.44;53.39;100724.38;5072293;28;20040;-63
2023/12/01 05:00:19;;;;;;;0.40;0.40;;;;;;;7.91;56.85;100732.59;5072101;28;20397;-63
2023/12/01 05:02:55;;;;;;;0.35;0.35;;;;;;;7.24;56.42;100736.59;5070643;28;20052;-64
2023/12/01 05:05:24;;;;;;;0.65;0.65;;;;;;;8.30;54.88;100739.69;5071541;28;20511;-63
2023/12/01 05:07:52;;;;;;;0.40;0.40;;;;;;;8.43;53.52;100741.47;5071593;28;20564;-64
2023/12/01 05:10:20;;;;;;;0.47;0.47;;;;;;;8.65;52.38;100746.28;5071495;28;20056;-64
2023/12/01 05:12:50;;;;;;;0.45;0.45;;;;;;;8.21;54.47;100740.94;5071188;28;20029;-64
2023/12/01 05:15:17;;;;;;;0.50;0.50;;;;;;;8.63;52.68;100758.25;5071460;28;20098;-63
2023/12/01 05:17:44;;;;;;;0.40;0.40;;;;;;;8.24;52.33;100747.69;5061041;28;20097;-64
2023/12/01 05:20:15;;;;;;;0.40;0.40;;;;;;;7.95;53.11;100752.53;5056490;28;20143;-64
2023/12/01 05:22:49;;;;;;;0.50;0.50;;;;;;;8.88;52.24;100748.44;5051597;28;20123;-64
2023/12/01 05:25:16;;;;;;;0.52;0.52;;;;;;;9.10;51.06;100759.63;5053062;28;20033;-65
2023/12/01 05:27:50;;;;;;;0.60;0.60;;;;;;;9.38;50.61;100752.78;5071521;28;20032;-64
2023/12/01 05:30:19;;;;;;;0.45;0.45;;;;;;;8.98;51.73;100762.19;5071485;28;20107;-64
2023/12/01 05:32:46;;;;;;;0.30;0.30;;;;;;;9.00;51.41;100765.47;5071897;28;20508;-64
2023/12/01 05:35:12;;;;;;;0.30;0.30;;;;;;;9.34;50.84;100766.84;5071079;28;20051;-63
2023/12/01 05:37:39;;;;;;;0.45;0.45;;;;;;;9.41;50.61;100756.88;5070906;28;20048;-64
2023/12/01 05:40:06;;;;;;;0.43;0.43;;;;;;;8.51;52.24;100768.00;5071287;28;20033;-64
2023/12/01 05:42:32;;;;;;;0.40;0.40;;;;;;;8.86;51.45;100767.38;5071581;28;20032;-64
2023/12/01 05:44:58;;;;;;;0.45;0.45;;;;;;;8.91;51.32;100765.91;5071645;28;20034;-64
2023/12/01 05:47:23;;;;;;;0.38;0.38;;;;;;;8.72;51.97;100773.06;5071728;28;20031;-65
2023/12/01 05:49:50;;;;;;;0.50;0.50;;;;;;;8.34;52.76;100777.53;5071359;28;20032;-64
2023/12/01 05:52:15;;;;;;;0.40;0.40;;;;;;;8.41;53.24;100781.03;5071245;28;20472;-64
2023/12/01 05:54:40;;;;;;;0.30;0.30;;;;;;;8.49;51.78;100775.44;5071220;28;20043;-63
2023/12/01 05:57:06;;;;;;;0.40;0.40;;;;;;;8.83;51.90;100777.72;5070903;28;20107;-64
2023/12/01 05:59:32;;;;;;;0.55;0.55;;;;;;;8.93;51.54;100785.28;5071340;28;20031;-64
2023/12/01 06:01:58;;;;;;;0.40;0.40;;;;;;;8.42;52.90;100785.34;5070700;28;20036;-64
2023/12/01 06:04:25;;;;;;;0.55;0.55;;;;;;;8.64;51.84;100779.47;5070672;28;20040;-64
2023/12/01 06:06:50;;;;;;;0.30;0.30;;;;;;;8.17;52.44;100784.38;5070846;28;20493;-64
2023/12/01 06:09:17;;;;;;;0.47;0.47;;;;;;;8.33;51.87;100790.13;5070482;28;20074;-64
2023/12/01 06:11:42;;;;;;;0.52;0.52;;;;;;;8.04;53.48;100797.81;5071272;28;20029;-64
2023/12/01 06:14:08;;;;;;;0.57;0.57;;;;;;;8.52;51.97;100791.91;5058094;28;20516;-65
2023/12/01 06:16:34;;;;;;;0.50;0.50;;;;;;;7.64;53.57;100803.22;5068981;28;20552;-64
2023/12/01 06:18:59;;;;;;;0.40;0.40;;;;;;;8.28;52.35;100799.81;5067959;28;20492;-63
2023/12/01 06:21:25;;;;;;;0.55;0.55;;;;;;;8.55;52.24;100798.69;5070485;28;20039;-63
2023/12/01 06:23:50;;;;;;;0.45;0.45;;;;;;;8.32;52.32;100798.34;5068467;28;20123;-65
2023/12/01 06:26:16;;;;;;;0.30;0.30;;;;;;;8.27;51.66;100800.84;5070015;28;20029;-64
2023/12/01 06:28:41;;;;;;;0.40;0.40;;;;;;;8.39;52.28;100799.97;5070452;28;20040;-63
2023/12/01 06:31:07;;;;;;;0.50;0.50;;;;;;;8.01;51.94;100807.06;5070270;28;20087;-64
2023/12/01 06:33:32;;;;;;;0.40;0.40;;;;;;;8.18;53.03;100810.94;5069924;28;20041;-63
2023/12/01 06:35:58;;;;;;;0.40;0.40;;;;;;;8.39;51.51;100818.72;5070115;28;20048;-64
2023/12/01 06:38:23;;;;;;;0.77;0.77;;;;;;;8.33;50.86;100816.91;5069570;28;20179;-65
2023/12/01 06:40:49;;;;;;;0.50;0.50;;;;;;;7.76;52.67;100809.56;5069258;28;20039;-64
2023/12/01 06:43:15;;;;;;;0.52;0.52;;;;;;;8.24;51.83;100818.13;5069875;28;20500;-64
2023/12/01 06:45:41;;;;;;;0.50;0.50;;;;;;;7.47;53.66;100815.34;5069727;28;20028;-64
2023/12/01 06:48:07;;;;;;;0.45;0.45;;;;;;;7.86;52.52;100814.50;5066004;28;20044;-65
2023/12/01 06:50:33;;;;;;;0.40;0.40;;;;;;;7.29;53.79;100817.00;5062841;28;20534;-64
2023/12/01 06:52:59;;;;;;;0.40;0.40;;;;;;;7.41;53.20;100823.38;5069166;28;20040;-64
2023/12/01 06:55:25;;;;;;;0.50;0.50;;;;;;;7.55;53.29;100827.69;5069190;28;20043;-64
2023/12/01 06:57:50;;;;;;;0.60;0.60;;;;;;;7.69;52.91;100838.19;5067445;28;20040;-64
2023/12/01 07:02:57;;;;;;;0.47;0.47;;;;;;;7.69;52.45;100837.34;5070208;28;20024;-64
2023/12/01 07:05:25;;;;;;;0.50;0.50;;;;;;;8.00;51.72;100833.00;5069437;28;20116;-64
2023/12/01 07:07:51;;;;;;;0.43;0.43;;;;;;;7.54;53.20;100839.41;5069564;28;20032;-64
2023/12/01 07:10:17;;;;;;;0.47;0.47;;;;;;;7.14;53.28;100843.88;5069562;28;20032;-65
2023/12/01 07:12:42;;;;;;;0.50;0.50;;;;;;;7.73;52.80;100852.78;5068509;28;20047;-64
2023/12/01 07:15:11;;;;;;;0.38;0.38;;;;;;;8.11;51.49;100852.97;5050395;28;20036;-64
2023/12/01 07:17:38;;;;;;;0.70;0.70;;;;;;;8.06;51.75;100846.59;5068861;28;20107;-64
2023/12/01 07:20:13;;;;;;;0.55;0.55;;;;;;;8.14;51.56;100851.72;5068201;28;20501;-65
2023/12/01 07:22:38;;;;;;;0.30;0.30;;;;;;;7.70;52.57;100855.88;5069397;28;20044;-63
2023/12/01 07:25:09;;;;;;;0.60;0.60;;;;;;;8.18;51.84;100858.28;5069287;28;20036;-64
2023/12/01 07:27:35;;;;;;;;;;;;;;;8.47;50.72;100849.81;5069417;28;20036;-64
2023/12/01 07:30:00;;;;;;;0.50;0.50;;;;;;;8.32;51.29;100857.25;5069930;28;20379;-65
2023/12/01 07:32:25;;;;;;;0.43;0.43;;;;;;;8.42;51.22;100850.44;5068905;28;20036;-65
2023/12/01 07:34:51;;;;;;;0.50;0.50;;;;;;;8.23;50.72;100861.16;5069150;28;20059;-65
2023/12/01 07:37:16;;;;;;;0.50;0.50;;;;;;;8.08;51.77;100860.59;5067994;28;20051;-65
2023/12/01 07:39:41;;;;;;;0.80;0.80;;;;;;;8.01;51.45;100863.25;5068658;28;20187;-65
2023/12/01 07:42:07;;;;;;;0.57;0.57;;;;;;;8.48;50.49;100862.16;5066763;28;20169;-63
2023/12/01 07:44:33;;;;;;;0.60;0.60;;;;;;;8.08;51.32;100864.06;5069525;28;20040;-64
2023/12/01 07:46:58;;;;;;;0.40;0.40;;;;;;;7.95;51.25;100870.28;5068591;28;20033;-64
2023/12/01 07:49:23;;;;;;;0.60;0.60;;;;;;;7.76;52.36;100870.28;5069140;28;20264;-65
2023/12/01 07:52:08;;;;;;;0.43;0.43;;;;;;;7.35;53.01;100877.66;5069001;28;20075;-65
2023/12/01 07:54:35;;;;;;;0.57;0.57;;;;;;;7.60;52.09;100879.53;5071462;28;20043;-65
2023/12/01 07:57:00;;;;;;;0.43;0.43;;;;;;;7.76;51.88;100884.44;5073313;28;20035;-63
2023/12/01 07:59:27;;;;;;;0.40;0.40;;;;;;;7.68;52.04;100876.66;5073341;28;20127;-64
2023/12/01 08:01:53;;;;;;;0.50;0.50;;;;;;;7.90;51.23;100887.97;5072778;28;20566;-67
2023/12/01 08:04:19;;;;;;;0.47;0.47;;;;;;;8.08;50.80;100884.66;5073383;28;20147;-65
2023/12/01 08:06:44;;;;;;;0.50;0.50;;;;;;;7.78;50.93;100892.28;5059386;28;20036;-64
2023/12/01 08:09:16;;;;;;;0.43;0.43;;;;;;;8.12;51.02;100892.06;5061180;28;20304;-64
2023/12/01 08:11:44;;;;;;;0.40;0.40;;;;;;;8.06;51.18;100887.53;5073885;28;20032;-64
2023/12/01 08:14:10;;;;;;;0.40;0.40;;;;;;;7.51;52.50;100894.09;5072947;28;20052;-67
2023/12/01 08:16:36;;;;;;;0.50;0.50;;;;;;;7.40;51.53;100889.38;5071338;28;20032;-64
2023/12/01 08:19:01;;;;;;;0.40;0.40;;;;;;;6.75;53.14;100890.00;5072418;28;20302;-65
2023/12/01 08:21:26;;;;;;;0.40;0.40;;;;;;;6.78;53.24;100888.78;5070769;28;20491;-64
2023/12/01 08:23:52;;;;;;;0.50;0.50;;;;;;;7.08;52.98;100887.44;5069803;28;20031;-65
2023/12/01 08:26:22;;;;;;;0.43;0.43;;;;;;;7.50;51.91;100889.81;5072322;28;20032;-65
2023/12/01 08:28:47;;;;;;;0.60;0.60;;;;;;;7.59;51.46;100888.56;5072095;28;20095;-65
2023/12/01 08:31:12;;;;;;;0.50;0.50;;;;;;;7.09;52.12;100895.25;5072209;28;20051;-64
2023/12/01 08:33:38;;;;;;;0.40;0.40;;;;;;;7.43;52.18;100899.66;5068839;28;20079;-66
2023/12/01 08:36:03;;;;;;;0.40;0.40;;;;;;;7.61;52.00;100905.22;5052610;28;20123;-64
2023/12/01 08:38:29;;;;;;;0.40;0.40;;;;;;;7.53;51.37;100891.22;5052453;28;20211;-66
2023/12/01 08:40:54;;;;;;;0.50;0.50;;;;;;;7.00;52.56;100901.81;5052324;28;20044;-63
2023/12/01 08:43:20;;;;;;;0.50;0.50;;;;;;;7.40;52.74;100900.06;5069204;28;20038;-65
2023/12/01 08:45:45;;;;;;;0.40;0.40;;;;;;;7.39;52.18;100901.09;5070531;28;20032;-65
2023/12/01 08:48:10;;;;;;;0.40;0.40;;;;;;;7.51;51.76;100902.13;5072379;28;20523;-64
2023/12/01 08:50:36;;;;;;;0.50;0.50;;;;;;;7.64;51.88;100904.00;5072806;28;20104;-65
2023/12/01 08:53:01;;;;;;;0.70;0.70;;;;;;;7.59;52.27;100906.47;5072113;28;20666;-64
2023/12/01 08:55:26;;;;;;;0.43;0.43;;;;;;;7.56;52.27;100913.06;5072348;28;20037;-65
2023/12/01 08:57:52;;;;;;;0.50;0.50;;;;;;;7.84;51.85;100915.56;5072038;28;20043;-66
2023/12/01 09:00:20;;;;;;;0.50;0.50;;;;;;;7.83;51.21;100914.72;5072062;28;20039;-67
2023/12/01 09:02:47;;;;;;;0.50;0.50;;;;;;;7.80;51.75;100914.31;5072111;28;20033;-64
2023/12/01 09:05:13;;;;;;;0.50;0.50;;;;;;;7.72;51.49;100917.19;5070672;28;20036;-67
2023/12/01 09:07:38;;;;;;;0.40;0.40;;;;;;;7.74;51.92;100912.47;5071781;28;20459;-65
2023/12/01 09:10:04;;;;;;;0.50;0.50;;;;;;;7.49;51.57;100914.09;5072427;28;20047;-65
2023/12/01 09:12:30;;;;;;;0.40;0.40;;;;;;;7.55;52.20;100915.91;5071902;28;20037;-65
2023/12/01 09:14:56;;;;;;;0.40;0.40;;;;;;;7.60;51.54;100913.47;5072479;28;20476;-67
2023/12/01 09:17:22;;;;;;;0.30;0.30;;;;;;;8.08;50.25;100914.91;5071599;28;20123;-65
2023/12/01 09:19:47;;;;;;;0.40;0.40;;;;;;;8.25;49.82;100918.84;5072189;28;20121;-64
2023/12/01 09:22:12;;;;;;;0.50;0.50;;;;;;;8.22;49.57;100926.41;5071627;28;20044;-65
2023/12/01 09:24:38;;;;;;;0.40;0.40;;;;;;;7.38;51.56;100920.84;5071303;28;20036;-63
2023/12/01 09:27:03;;;;;;;0.50;0.50;;;;;;;7.41;51.89;100935.66;5054505;28;20024;-65
2023/12/01 09:29:29;;;;;;;0.55;0.55;;;;;;;7.78;51.32;100933.22;5051946;28;20028;-65
2023/12/01 09:31:55;;;;;;;0.43;0.43;;;;;;;7.85;50.48;100935.91;5051413;28;20045;-64
2023/12/01 09:34:21;;;;;;;0.55;0.55;;;;;;;7.77;50.52;100930.75;5051566;28;20061;-66
2023/12/01 09:36:46;;;;;;;0.50;0.50;;;;;;;7.73;50.15;100938.38;5050843;28;20130;-64
2023/12/01 09:39:12;;;;;;;0.40;0.40;;;;;;;7.57;51.05;100936.09;5051478;28;20043;-65
2023/12/01 09:41:39;;;;;;;0.63;0.63;;;;;;;7.50;52.15;100935.25;5051758;28;20029;-64
2023/12/01 09:44:07;;;;;;;0.60;0.60;;;;;;;7.94;50.86;100940.84;5069452;28;20044;-67
2023/12/01 09:46:35;;;;;;;0.40;0.40;;;;;;;8.11;51.07;100943.13;5071286;28;20082;-64
2023/12/01 09:49:05;;;;;;;0.55;0.55;;;;;;;8.25;49.91;100945.63;5069725;28;20037;-65
2023/12/01 09:51:34;;;;;;;0.35;0.35;;;;;;;8.62;49.97;100950.31;5070906;28;20042;-64
2023/12/01 09:54:00;;;;;;;0.55;0.55;;;;;;;8.42;49.90;100954.03;5071262;28;20114;-67
2023/12/01 09:56:26;;;;;;;0.50;0.50;;;;;;;8.83;49.76;100947.34;5070615;28;20571;-64
2023/12/01 09:58:51;;;;;;;0.50;0.50;;;;;;;8.32;49.70;100956.31;5070673;28;20489;-66
2023/12/01 10:01:19;;;;;;;0.50;0.50;;;;;;;7.59;51.14;100959.94;5070343;28;20032;-65
2023/12/01 10:03:44;;;;;;;0.50;0.50;;;;;;;7.32;51.40;100959.06;5070787;28;20123;-66
2023/12/01 10:06:10;;;;;;;0.40;0.40;;;;;;;8.24;50.83;100960.00;5070890;28;20039;-68
2023/12/01 10:08:36;;;;;;;0.40;0.40;;;;;;;8.40;50.07;100964.13;5071369;28;20056;-64
2023/12/01 10:11:18;;;;;;;0.60;0.60;;;;;;;7.84;51.19;100967.19;5070607;28;20427;-64
2023/12/01 10:13:45;;;;;;;0.52;0.52;;;;;;;7.52;51.55;100961.78;5070696;28;20492;-66
2023/12/01 10:16:11;;;;;;;0.45;0.45;;;;;;;7.23;52.80;100970.13;5069521;28;20064;-66
2023/12/01 10:18:37;;;;;;;0.50;0.50;;;;;;;7.76;51.48;100971.91;5070668;28;20028;-65
2023/12/01 10:21:03;;;;;;;0.40;0.40;;;;;;;8.20;50.83;100968.63;5070385;28;20036;-64
2023/12/01 10:23:30;;;;;;;0.40;0.40;;;;;;;8.45;50.10;100962.47;5070638;28;20024;-65
2023/12/01 10:25:56;;;;;;;0.43;0.43;;;;;;;8.42;49.79;100962.91;5062722;28;20087;-65
2023/12/01 10:28:22;;;;;;;0.60;0.60;;;;;;;8.26;50.68;100965.16;5050362;28;20039;-64
2023/12/01 10:30:58;;;;;;;0.55;0.55;;;;;;;8.80;49.44;100963.81;5049984;28;20041;-64
2023/12/01 10:33:31;;;;;;;0.40;0.40;;;;;;;8.31;50.45;100957.34;5048891;28;20041;-64
2023/12/01 10:36:05;;;;;;;0.50;0.50;;;;;;;7.61;52.12;100972.09;5050684;28;20075;-64
2023/12/01 10:38:35;;;;;;;0.30;0.30;;;;;;;7.95;51.13;100971.94;5053287;28;20170;-64
2023/12/01 10:41:05;;;;;;;0.50;0.50;;;;;;;8.19;49.41;100975.03;5070209;28;20044;-65
2023/12/01 10:43:32;;;;;;;0.43;0.43;;;;;;;8.31;49.60;100974.25;5070124;28;20040;-65
2023/12/01 10:46:01;;;;;;;0.40;0.40;;;;;;;7.49;50.02;100973.69;5069630;28;20120;-64
2023/12/01 10:48:29;;;;;;;0.50;0.50;;;;;;;7.09;50.99;100963.91;5069948;28;20028;-65
2023/12/01 10:50:55;;;;;;;0.43;0.43;;;;;;;7.62;50.30;100968.41;5068369;28;20483;-65
2023/12/01 10:53:24;;;;;;;0.50;0.50;;;;;;;7.49;50.41;100963.00;5069488;28;20075;-64
2023/12/01 10:55:50;;;;;;;0.60;0.60;;;;;;;6.61;52.25;100963.06;5069721;28;20033;-65
2023/12/01 10:58:21;;;;;;;0.50;0.50;;;;;;;7.38;50.53;100955.59;5069318;28;20049;-64
2023/12/01 11:00:49;;;;;;;0.40;0.40;;;;;;;7.13;50.92;100949.94;5069307;28;20106;-64
2023/12/01 11:03:23;;;;;;;0.60;0.60;;;;;;;7.85;49.85;100958.16;5053959;28;20041;-65
2023/12/01 11:06:10;;;;;;;0.50;0.50;;;;;;;8.31;48.61;100957.34;5049964;28;20052;-64
2023/12/01 11:09:11;;;;;;;0.63;0.63;;;;;;;7.18;50.98;100949.34;5064232;28;20063;-64
2023/12/01 11:11:54;;;;;;;0.45;0.45;;;;;;;7.95;49.25;100947.88;5049864;28;20075;-65
2023/12/01 11:14:21;;;;;;;0.60;0.60;;;;;;;6.98;50.86;100951.09;5049401;28;20512;-64
2023/12/01 11:16:47;;;;;;;0.47;0.47;;;;;;;7.17;51.13;100955.72;5047406;28;20045;-64
2023/12/01 11:19:14;;;;;;;0.40;0.40;;;;;;;7.56;50.63;100952.34;5049316;28;20110;-64
2023/12/01 11:21:44;;;;;;;0.53;0.53;;;;;;;7.37;51.18;100953.91;5049215;28;20064;-64
2023/12/01 11:24:31;;;;;;;0.50;0.50;;;;;;;8.32;50.16;100953.63;5047693;28;20115;-64
2023/12/01 11:27:04;;;;;;;0.50;0.50;;;;;;;8.54;49.76;100952.38;5065326;28;20078;-64
2023/12/01 11:29:33;;;;;;;0.57;0.57;;;;;;;8.66;49.08;100954.22;5069577;28;20040;-64
2023/12/01 11:31:59;;;;;;;0.80;0.80;;;;;;;8.72;49.01;100953.38;5069320;28;20032;-64
2023/12/01 11:34:27;;;;;;;0.40;0.40;;;;;;;8.84;48.62;100948.19;5068880;28;20515;-64